EZY3441 EGGP-EHRD
Flight info
| Callsign | EZY3441 |
|---|---|
| Flight time | 0h 34m |
| Altitude | 37000 |
| Route | NANTI2V NANTI L8 HON P155 SIVDA P137 REDFA REDFA3R |
| Aircraft | A320/M-SDE3FGHIRWY/LB1 |
Departure
| Time | 2026-05-07 08:28 |
|---|---|
| Airport | Liverpool John Lennon Airport (EGGP) |
Arrival
| Time | 2026-05-07 09:02 |
|---|---|
| Airport | Rotterdam The Hague Airport (EHRD) |
| Time | Latitude | Longitude | Altitude | Speed | Heading |
|---|---|---|---|---|---|
| 2026-05-07 08:13 | 53.33579 | -2.85413 | 95 ft | 0 kts | 85° |
| 2026-05-07 08:21 | 53.33578 | -2.85435 | 95 ft | 4 kts | 87° |
| 2026-05-07 08:21 | 53.33579 | -2.85480 | 94 ft | 4 kts | 104° |
| 2026-05-07 08:21 | 53.33589 | -2.85512 | 94 ft | 4 kts | 164° |
| 2026-05-07 08:22 | 53.33599 | -2.85515 | 94 ft | 1 kts | 175° |
| 2026-05-07 08:24 | 53.33590 | -2.85514 | 96 ft | 7 kts | 175° |
| 2026-05-07 08:25 | 53.33508 | -2.85510 | 97 ft | 8 kts | 194° |
| 2026-05-07 08:25 | 53.33496 | -2.85603 | 96 ft | 19 kts | 263° |
| 2026-05-07 08:25 | 53.33491 | -2.85858 | 94 ft | 18 kts | 275° |
| 2026-05-07 08:25 | 53.33483 | -2.86064 | 94 ft | 18 kts | 264° |
| 2026-05-07 08:26 | 53.33459 | -2.86515 | 94 ft | 21 kts | 265° |
| 2026-05-07 08:26 | 53.33454 | -2.86624 | 94 ft | 3 kts | 265° |
| 2026-05-07 08:26 | 53.33437 | -2.86690 | 95 ft | 13 kts | 227° |
| 2026-05-07 08:27 | 53.33332 | -2.86703 | 94 ft | 18 kts | 153° |
| 2026-05-07 08:27 | 53.33291 | -2.86516 | 94 ft | 19 kts | 85° |
| 2026-05-07 08:27 | 53.33302 | -2.86280 | 94 ft | 22 kts | 86° |
| 2026-05-07 08:27 | 53.33324 | -2.85745 | 98 ft | 89 kts | 86° |
| 2026-05-07 08:28 | 53.33392 | -2.84260 | 315 ft | 145 kts | 88° |
| 2026-05-07 08:28 | 53.33588 | -2.82601 | 1297 ft | 146 kts | 83° |
| 2026-05-07 08:28 | 53.33736 | -2.80809 | 1735 ft | 166 kts | 92° |
| 2026-05-07 08:28 | 53.33571 | -2.78863 | 2128 ft | 177 kts | 123° |
| 2026-05-07 08:29 | 53.32667 | -2.77378 | 2491 ft | 194 kts | 152° |
| 2026-05-07 08:29 | 53.31449 | -2.76143 | 2901 ft | 217 kts | 152° |
| 2026-05-07 08:29 | 53.30089 | -2.74731 | 3452 ft | 241 kts | 152° |
| 2026-05-07 08:29 | 53.28659 | -2.73224 | 4320 ft | 251 kts | 151° |
| 2026-05-07 08:30 | 53.27255 | -2.71768 | 5150 ft | 225 kts | 153° |
| 2026-05-07 08:30 | 53.25946 | -2.70434 | 5676 ft | 217 kts | 152° |
| 2026-05-07 08:30 | 53.24643 | -2.69096 | 5846 ft | 224 kts | 151° |
| 2026-05-07 08:30 | 53.23300 | -2.67705 | 5980 ft | 229 kts | 152° |
| 2026-05-07 08:31 | 53.21944 | -2.66291 | 6111 ft | 230 kts | 150° |
| 2026-05-07 08:31 | 53.20604 | -2.64891 | 6241 ft | 225 kts | 150° |
| 2026-05-07 08:31 | 53.19294 | -2.63518 | 6377 ft | 220 kts | 150° |
| 2026-05-07 08:31 | 53.18018 | -2.62162 | 6505 ft | 216 kts | 150° |
| 2026-05-07 08:32 | 53.16790 | -2.60756 | 6631 ft | 212 kts | 147° |
| 2026-05-07 08:32 | 53.15595 | -2.59339 | 6751 ft | 209 kts | 148° |
| 2026-05-07 08:32 | 53.14427 | -2.57939 | 6869 ft | 202 kts | 146° |
| 2026-05-07 08:32 | 53.13372 | -2.56613 | 6851 ft | 185 kts | 148° |
| 2026-05-07 08:33 | 53.12204 | -2.55318 | 6644 ft | 206 kts | 151° |
| 2026-05-07 08:33 | 53.10997 | -2.54082 | 6360 ft | 212 kts | 153° |
| 2026-05-07 08:33 | 53.09621 | -2.52763 | 6852 ft | 245 kts | 149° |
| 2026-05-07 08:33 | 53.08156 | -2.50960 | 7756 ft | 269 kts | 143° |
| 2026-05-07 08:34 | 53.06698 | -2.48988 | 8919 ft | 277 kts | 143° |
| 2026-05-07 08:34 | 53.05217 | -2.47000 | 10152 ft | 282 kts | 144° |
| 2026-05-07 08:34 | 53.03604 | -2.44914 | 10859 ft | 307 kts | 145° |
| 2026-05-07 08:34 | 53.01828 | -2.42706 | 11549 ft | 327 kts | 145° |
| 2026-05-07 08:35 | 52.99960 | -2.40448 | 12541 ft | 336 kts | 146° |
| 2026-05-07 08:35 | 52.98053 | -2.38188 | 13577 ft | 342 kts | 146° |
| 2026-05-07 08:35 | 52.96089 | -2.35887 | 14597 ft | 347 kts | 146° |
| 2026-05-07 08:35 | 52.94100 | -2.33570 | 15572 ft | 352 kts | 147° |
| 2026-05-07 08:36 | 52.92082 | -2.31226 | 16541 ft | 356 kts | 147° |
| 2026-05-07 08:36 | 52.90035 | -2.28848 | 17462 ft | 362 kts | 147° |
| 2026-05-07 08:36 | 52.87965 | -2.26435 | 17906 ft | 365 kts | 147° |
| 2026-05-07 08:36 | 52.85892 | -2.24011 | 18036 ft | 365 kts | 147° |
| 2026-05-07 08:37 | 52.83813 | -2.21582 | 18064 ft | 365 kts | 147° |
| 2026-05-07 08:37 | 52.81767 | -2.19198 | 18064 ft | 365 kts | 147° |
| 2026-05-07 08:37 | 52.79692 | -2.16792 | 18067 ft | 365 kts | 147° |
| 2026-05-07 08:37 | 52.77611 | -2.14386 | 18065 ft | 365 kts | 146° |
| 2026-05-07 08:38 | 52.75530 | -2.11979 | 18067 ft | 365 kts | 146° |
| 2026-05-07 08:38 | 52.73447 | -2.09570 | 18063 ft | 365 kts | 146° |
| 2026-05-07 08:38 | 52.68544 | -2.03908 | 19469 ft | 374 kts | 146° |
| 2026-05-07 08:38 | 52.59866 | -1.93933 | 22963 ft | 387 kts | 145° |
| 2026-05-07 08:39 | 52.50910 | -1.83727 | 25587 ft | 404 kts | 144° |
| 2026-05-07 08:39 | 52.41521 | -1.72976 | 27893 ft | 418 kts | 141° |
| 2026-05-07 08:39 | 52.35867 | -1.56709 | 29983 ft | 425 kts | 96° |
| 2026-05-07 08:39 | 52.35894 | -1.37172 | 31093 ft | 435 kts | 89° |
| 2026-05-07 08:40 | 52.35900 | -1.17594 | 30959 ft | 432 kts | 89° |
| 2026-05-07 08:40 | 52.35935 | -0.98325 | 31033 ft | 426 kts | 89° |
| 2026-05-07 08:40 | 52.35936 | -0.78804 | 31167 ft | 426 kts | 89° |
| 2026-05-07 08:40 | 52.35906 | -0.58975 | 31140 ft | 433 kts | 89° |
| 2026-05-07 08:41 | 52.35852 | -0.39668 | 30995 ft | 434 kts | 90° |
| 2026-05-07 08:41 | 52.35752 | -0.20087 | 30968 ft | 429 kts | 90° |
| 2026-05-07 08:41 | 52.35626 | -0.00532 | 31120 ft | 425 kts | 90° |
| 2026-05-07 08:41 | 52.34203 | 0.18900 | 31181 ft | 433 kts | 97° |
| 2026-05-07 08:42 | 52.32454 | 0.38317 | 31021 ft | 436 kts | 97° |
| 2026-05-07 08:42 | 52.30685 | 0.57745 | 30981 ft | 431 kts | 97° |
| 2026-05-07 08:42 | 52.28898 | 0.77091 | 31134 ft | 427 kts | 97° |
| 2026-05-07 08:42 | 52.27063 | 0.96487 | 31189 ft | 434 kts | 98° |
| 2026-05-07 08:43 | 52.25171 | 1.16025 | 31057 ft | 440 kts | 98° |
| 2026-05-07 08:43 | 52.23245 | 1.35592 | 30979 ft | 439 kts | 98° |
| 2026-05-07 08:43 | 52.21360 | 1.54430 | 29759 ft | 403 kts | 98° |
| 2026-05-07 08:43 | 52.19555 | 1.72175 | 27274 ft | 390 kts | 98° |
| 2026-05-07 08:44 | 52.17785 | 1.89416 | 25008 ft | 381 kts | 99° |
| 2026-05-07 08:44 | 52.17130 | 1.95731 | 24202 ft | 378 kts | 99° |
| 2026-05-07 08:44 | 52.16691 | 1.99927 | 23644 ft | 377 kts | 99° |
| 2026-05-07 08:44 | 52.16247 | 2.04138 | 23024 ft | 375 kts | 99° |
| 2026-05-07 08:45 | 52.14740 | 2.18436 | 21181 ft | 367 kts | 100° |
| 2026-05-07 08:45 | 52.13024 | 2.34402 | 19288 ft | 358 kts | 100° |
| 2026-05-07 08:45 | 52.11104 | 2.50149 | 17403 ft | 351 kts | 111° |
| 2026-05-07 08:45 | 52.07100 | 2.64390 | 15698 ft | 341 kts | 114° |
| 2026-05-07 08:46 | 52.03204 | 2.78312 | 14068 ft | 334 kts | 114° |
| 2026-05-07 08:46 | 51.99384 | 2.91859 | 12354 ft | 325 kts | 114° |
| 2026-05-07 08:46 | 51.95761 | 3.04637 | 11472 ft | 292 kts | 115° |
| 2026-05-07 08:46 | 51.92560 | 3.15864 | 10970 ft | 259 kts | 115° |
| 2026-05-07 08:47 | 51.89668 | 3.25951 | 10453 ft | 236 kts | 115° |
| 2026-05-07 08:47 | 51.86830 | 3.35830 | 9046 ft | 245 kts | 115° |
| 2026-05-07 08:47 | 51.85938 | 3.38923 | 8866 ft | 235 kts | 115° |
| 2026-05-07 08:47 | 51.85260 | 3.41271 | 8721 ft | 227 kts | 115° |
| 2026-05-07 08:48 | 51.84604 | 3.43544 | 8597 ft | 219 kts | 115° |
| 2026-05-07 08:48 | 51.83968 | 3.45743 | 8460 ft | 212 kts | 115° |
| 2026-05-07 08:48 | 51.83354 | 3.47860 | 8332 ft | 205 kts | 115° |
| 2026-05-07 08:48 | 51.82757 | 3.49911 | 8195 ft | 199 kts | 115° |
| 2026-05-07 08:49 | 51.82174 | 3.51917 | 7995 ft | 196 kts | 115° |
| 2026-05-07 08:49 | 51.81597 | 3.53902 | 7781 ft | 195 kts | 115° |
| 2026-05-07 08:49 | 51.81024 | 3.55872 | 7575 ft | 193 kts | 115° |
| 2026-05-07 08:49 | 51.80520 | 3.57869 | 7353 ft | 192 kts | 107° |
| 2026-05-07 08:50 | 51.80252 | 3.59956 | 6978 ft | 194 kts | 96° |
| 2026-05-07 08:50 | 51.80231 | 3.62156 | 6581 ft | 197 kts | 86° |
| 2026-05-07 08:50 | 51.80444 | 3.64358 | 6161 ft | 200 kts | 80° |
| 2026-05-07 08:50 | 51.80689 | 3.66574 | 5746 ft | 201 kts | 80° |
| 2026-05-07 08:51 | 51.80933 | 3.68810 | 5330 ft | 201 kts | 80° |
| 2026-05-07 08:51 | 51.81174 | 3.71036 | 4920 ft | 201 kts | 80° |
| 2026-05-07 08:51 | 51.81332 | 3.72507 | 4665 ft | 200 kts | 80° |
| 2026-05-07 08:51 | 51.81562 | 3.74652 | 4514 ft | 187 kts | 80° |
| 2026-05-07 08:52 | 51.81777 | 3.76665 | 4387 ft | 176 kts | 80° |
| 2026-05-07 08:52 | 51.81981 | 3.78564 | 4251 ft | 167 kts | 79° |
| 2026-05-07 08:52 | 51.82177 | 3.80391 | 4156 ft | 164 kts | 80° |
| 2026-05-07 08:52 | 51.82372 | 3.82222 | 4084 ft | 166 kts | 80° |
| 2026-05-07 08:53 | 51.82568 | 3.84054 | 4081 ft | 165 kts | 79° |
| 2026-05-07 08:53 | 51.82761 | 3.85879 | 4081 ft | 164 kts | 80° |
| 2026-05-07 08:53 | 51.82955 | 3.87701 | 4077 ft | 165 kts | 79° |
| 2026-05-07 08:53 | 51.83164 | 3.89646 | 4097 ft | 197 kts | 79° |
| 2026-05-07 08:54 | 51.83406 | 3.91902 | 4082 ft | 211 kts | 79° |
| 2026-05-07 08:54 | 51.83657 | 3.94258 | 4079 ft | 213 kts | 79° |
| 2026-05-07 08:54 | 51.83902 | 3.96588 | 4076 ft | 207 kts | 79° |
| 2026-05-07 08:54 | 51.84141 | 3.98860 | 4074 ft | 204 kts | 79° |
| 2026-05-07 08:55 | 51.84377 | 4.01106 | 3889 ft | 202 kts | 79° |
| 2026-05-07 08:55 | 51.84614 | 4.03351 | 3658 ft | 202 kts | 79° |
| 2026-05-07 08:55 | 51.84850 | 4.05591 | 3443 ft | 201 kts | 79° |
| 2026-05-07 08:55 | 51.85085 | 4.07827 | 3233 ft | 201 kts | 79° |
| 2026-05-07 08:56 | 51.85313 | 4.10028 | 3119 ft | 194 kts | 79° |
| 2026-05-07 08:56 | 51.85527 | 4.12109 | 2993 ft | 183 kts | 79° |
| 2026-05-07 08:56 | 51.85731 | 4.14087 | 2859 ft | 174 kts | 79° |
| 2026-05-07 08:56 | 51.85927 | 4.15988 | 2716 ft | 167 kts | 79° |
| 2026-05-07 08:57 | 51.86117 | 4.17822 | 2583 ft | 162 kts | 79° |
| 2026-05-07 08:57 | 51.86301 | 4.19592 | 2456 ft | 157 kts | 78° |
| 2026-05-07 08:57 | 51.86615 | 4.21267 | 2333 ft | 156 kts | 58° |
| 2026-05-07 08:57 | 51.87181 | 4.22742 | 2200 ft | 153 kts | 57° |
| 2026-05-07 08:58 | 51.87737 | 4.24175 | 2124 ft | 147 kts | 57° |
| 2026-05-07 08:58 | 51.88284 | 4.25554 | 2050 ft | 145 kts | 56° |
| 2026-05-07 08:58 | 51.88823 | 4.26901 | 2009 ft | 142 kts | 56° |
| 2026-05-07 08:58 | 51.89352 | 4.28220 | 2013 ft | 138 kts | 56° |
| 2026-05-07 08:59 | 51.89878 | 4.29529 | 1925 ft | 137 kts | 56° |
| 2026-05-07 08:59 | 51.90396 | 4.30818 | 1793 ft | 135 kts | 56° |
| 2026-05-07 08:59 | 51.90899 | 4.32072 | 1630 ft | 130 kts | 56° |
| 2026-05-07 08:59 | 51.91389 | 4.33290 | 1463 ft | 128 kts | 56° |
| 2026-05-07 09:00 | 51.91867 | 4.34482 | 1277 ft | 123 kts | 56° |
| 2026-05-07 09:00 | 51.92323 | 4.35619 | 1111 ft | 118 kts | 56° |
| 2026-05-07 09:00 | 51.92771 | 4.36735 | 955 ft | 118 kts | 56° |
| 2026-05-07 09:00 | 51.93217 | 4.37849 | 794 ft | 117 kts | 56° |
| 2026-05-07 09:01 | 51.93666 | 4.38967 | 643 ft | 117 kts | 54° |
| 2026-05-07 09:01 | 51.94106 | 4.40066 | 484 ft | 116 kts | 54° |
| 2026-05-07 09:01 | 51.94546 | 4.41165 | 336 ft | 116 kts | 54° |
| 2026-05-07 09:01 | 51.94982 | 4.42256 | 167 ft | 115 kts | 56° |
| 2026-05-07 09:02 | 51.95416 | 4.43340 | 16 ft | 114 kts | 56° |
| 2026-05-07 09:02 | 51.95749 | 4.44183 | 0 ft | 33 kts | 56° |
| 2026-05-07 09:02 | 51.95879 | 4.44495 | -2 ft | 46 kts | 57° |
| 2026-05-07 09:02 | 51.95892 | 4.44699 | 1 ft | 5 kts | 153° |
| 2026-05-07 09:03 | 51.95841 | 4.44745 | 2 ft | 12 kts | 149° |
| 2026-05-07 09:03 | 51.95763 | 4.44700 | 1 ft | 17 kts | 235° |
| 2026-05-07 09:03 | 51.95683 | 4.44505 | 1 ft | 25 kts | 237° |
| 2026-05-07 09:03 | 51.95578 | 4.44238 | 1 ft | 29 kts | 237° |
| 2026-05-07 09:04 | 51.95465 | 4.43961 | 1 ft | 27 kts | 237° |
| 2026-05-07 09:04 | 51.95383 | 4.43748 | 1 ft | 20 kts | 237° |
| 2026-05-07 09:04 | 51.95305 | 4.43554 | 1 ft | 7 kts | 237° |
| 2026-05-07 09:04 | 51.95267 | 4.43490 | 1 ft | 10 kts | 191° |
| 2026-05-07 09:05 | 51.95191 | 4.43567 | 1 ft | 17 kts | 148° |
| 2026-05-07 09:05 | 51.95069 | 4.43694 | 1 ft | 24 kts | 147° |
| 2026-05-07 09:05 | 51.94980 | 4.43787 | 1 ft | 7 kts | 155° |
| 2026-05-07 09:05 | 51.94937 | 4.43724 | 1 ft | 12 kts | 237° |
| 2026-05-07 09:06 | 51.94886 | 4.43597 | 1 ft | 8 kts | 237° |
| 2026-05-07 09:06 | 51.94911 | 4.43535 | 1 ft | 10 kts | 327° |
| 2026-05-07 09:06 | 51.94922 | 4.43524 | 1 ft | 3 kts | 327° |
| 2026-05-07 09:06 | 51.94921 | 4.43525 | 1 ft | 0 kts | 327° |